Time;durP1;ratioP1;P1;durP2;ratioP2;P2;SDS_P1;SDS_P2;PMS_P1;PMS_P2;Temp;Humidity;BMP_temperature;BMP_pressure;BME280_temperature;BME280_humidity;BME280_pressure;Samples;Min_cycle;Max_cycle;Signal;HPM_P1;HPM_P2
2020/12/11 00:00:16;;;;;;;1.20;1.10;;;2.80;98.00;;;;;;5092043;28;20524;-60
2020/12/11 00:02:42;;;;;;;1.50;1.33;;;2.90;98.00;;;;;;5089924;28;20448;-61
2020/12/11 00:05:09;;;;;;;1.10;1.00;;;3.00;98.00;;;;;;5091999;28;20459;-61
2020/12/11 00:07:36;;;;;;;1.93;1.40;;;3.00;98.00;;;;;;5090232;28;20451;-61
2020/12/11 00:10:04;;;;;;;1.40;1.40;;;3.00;98.00;;;;;;5092021;28;20491;-61
2020/12/11 00:12:31;;;;;;;1.77;1.20;;;3.10;98.00;;;;;;5089121;28;20448;-61
2020/12/11 00:14:58;;;;;;;1.10;1.10;;;3.00;98.00;;;;;;5092177;28;20512;-60
2020/12/11 00:17:26;;;;;;;1.43;1.40;;;2.90;98.00;;;;;;5089597;28;20455;-61
2020/12/11 00:19:53;;;;;;;1.10;1.00;;;3.00;98.00;;;;;;5091852;28;20539;-61
2020/12/11 00:22:20;;;;;;;1.37;1.33;;;3.00;98.00;;;;;;5089714;28;20961;-61
2020/12/11 00:24:46;;;;;;;1.30;1.20;;;3.00;98.00;;;;;;5091653;28;20474;-61
2020/12/11 00:27:13;;;;;;;1.40;1.20;;;3.00;98.00;;;;;;5089888;28;20508;-60
2020/12/11 00:29:40;;;;;;;1.67;1.43;;;3.00;98.00;;;;;;5091752;28;20486;-61
2020/12/11 00:32:07;;;;;;;1.90;1.63;;;2.90;98.00;;;;;;5090039;28;20455;-61
2020/12/11 00:34:36;;;;;;;1.90;1.87;;;2.80;98.00;;;;;;5091649;28;20455;-61
2020/12/11 00:37:03;;;;;;;1.93;1.53;;;2.90;98.00;;;;;;5089303;28;20455;-61
2020/12/11 00:39:30;;;;;;;1.20;1.10;;;3.00;98.00;;;;;;5091608;28;20454;-60
2020/12/11 00:41:56;;;;;;;1.77;1.30;;;3.10;98.00;;;;;;5089957;28;20460;-60
2020/12/11 00:44:23;;;;;;;1.20;1.10;;;3.00;98.00;;;;;;5091487;28;20458;-61
2020/12/11 00:46:50;;;;;;;1.20;1.00;;;3.10;98.00;;;;;;5089579;28;20512;-61
2020/12/11 00:49:19;;;;;;;1.30;1.20;;;3.20;98.00;;;;;;5091276;28;20456;-61
2020/12/11 00:51:46;;;;;;;2.27;1.47;;;3.20;98.00;;;;;;5089387;28;20574;-61
2020/12/11 00:54:13;;;;;;;3.00;1.60;;;3.00;98.00;;;;;;5091258;28;20519;-60
2020/12/11 00:56:39;;;;;;;1.47;1.40;;;3.00;98.00;;;;;;5091579;28;20458;-61
2020/12/11 00:59:06;;;;;;;1.67;1.60;;;2.90;98.00;;;;;;5089717;28;20451;-60
2020/12/11 01:01:36;;;;;;;1.20;1.00;;;3.00;98.00;;;;;;5091515;28;21216;-61
2020/12/11 01:04:04;;;;;;;1.50;1.23;;;2.90;98.00;;;;;;5089875;28;20455;-61
2020/12/11 01:06:30;;;;;;;1.70;1.60;;;2.90;98.00;;;;;;5090318;28;20684;-60
2020/12/11 01:08:59;;;;;;;1.97;1.67;;;2.90;98.00;;;;;;5088000;28;21000;-61
2020/12/11 01:11:25;;;;;;;1.20;0.90;;;3.00;98.00;;;;;;5091402;28;20541;-60
2020/12/11 01:13:52;;;;;;;1.20;1.10;;;2.90;98.00;;;;;;5089765;28;20456;-61
2020/12/11 01:16:19;;;;;;;1.50;1.40;;;2.90;98.00;;;;;;5091034;28;20937;-61
2020/12/11 01:18:45;;;;;;;1.57;1.40;;;2.90;98.00;;;;;;5089087;28;20939;-61
2020/12/11 01:21:13;;;;;;;1.20;1.03;;;2.90;98.00;;;;;;5091215;28;20823;-61
2020/12/11 01:23:39;;;;;;;1.23;1.13;;;2.80;98.00;;;;;;5089479;28;20525;-61
2020/12/11 01:26:08;;;;;;;1.73;1.63;;;2.70;98.00;;;;;;5095168;28;20509;-61
2020/12/11 01:28:35;;;;;;;1.90;1.73;;;2.70;98.00;;;;;;5093361;28;20459;-60
2020/12/11 01:31:01;;;;;;;1.70;1.70;;;2.60;98.00;;;;;;5095134;28;20516;-61
2020/12/11 01:33:28;;;;;;;1.87;1.50;;;2.60;98.00;;;;;;5093053;28;20455;-60
2020/12/11 01:35:54;;;;;;;1.50;1.40;;;2.60;98.00;;;;;;5094991;28;20519;-60
2020/12/11 01:38:21;;;;;;;1.50;1.40;;;2.50;98.00;;;;;;5093127;28;20450;-61
2020/12/11 01:40:48;;;;;;;1.87;1.37;;;2.50;98.00;;;;;;5094899;28;20515;-60
2020/12/11 01:43:18;;;;;;;1.10;1.03;;;2.50;98.00;;;;;;5092944;28;20463;-60
2020/12/11 01:45:45;;;;;;;2.20;1.83;;;2.50;98.00;;;;;;5094764;28;20508;-60
2020/12/11 01:48:12;;;;;;;2.50;1.20;;;2.40;98.00;;;;;;5092806;28;20542;-60
2020/12/11 01:50:39;;;;;;;1.60;1.30;;;2.40;98.00;;;;;;5094613;28;20482;-60
2020/12/11 01:53:09;;;;;;;1.67;1.57;;;2.40;98.00;;;;;;5092657;28;20488;-61
2020/12/11 01:55:38;;;;;;;1.20;1.00;;;2.40;98.00;;;;;;5094623;28;20461;-60
2020/12/11 01:58:10;;;;;;;1.10;0.97;;;2.40;98.00;;;;;;5092578;28;20900;-60
2020/12/11 02:00:40;;;;;;;1.50;1.37;;;2.40;98.00;;;;;;5094269;28;20462;-60
2020/12/11 02:03:09;;;;;;;1.10;0.90;;;2.40;98.00;;;;;;5092572;28;20455;-60
2020/12/11 02:05:35;;;;;;;2.50;1.77;;;2.40;98.00;;;;;;5094488;28;20903;-60
2020/12/11 02:08:02;;;;;;;2.30;1.43;;;2.40;98.00;;;;;;5092607;28;20446;-60
2020/12/11 02:10:29;;;;;;;1.83;1.83;;;2.40;98.00;;;;;;5094096;28;20546;-60
2020/12/11 02:13:05;;;;;;;2.90;1.20;;;2.40;98.00;;;;;;5091942;28;20520;-60
2020/12/11 02:15:32;;;;;;;2.37;1.73;;;2.40;98.00;;;;;;5094156;28;20458;-60
2020/12/11 02:17:58;;;;;;;1.63;1.10;;;2.40;98.00;;;;;;5092198;28;20454;-60
2020/12/11 02:20:25;;;;;;;1.90;1.60;;;2.40;98.00;;;;;;5094157;28;20455;-60
2020/12/11 02:22:52;;;;;;;2.43;1.73;;;2.30;98.00;;;;;;5092646;28;20450;-60
2020/12/11 02:25:18;;;;;;;1.87;1.13;;;2.30;98.00;;;;;;5094141;28;20455;-61
2020/12/11 02:27:47;;;;;;;1.20;1.20;;;2.40;98.00;;;;;;5093716;28;20455;-61
2020/12/11 02:30:14;;;;;;;1.13;1.00;;;2.60;98.00;;;;;;5093238;28;20515;-60
2020/12/11 02:32:41;;;;;;;1.40;1.33;;;2.50;98.00;;;;;;5094144;28;20447;-60
2020/12/11 02:35:08;;;;;;;1.73;1.63;;;2.30;98.00;;;;;;5091694;28;20450;-61
2020/12/11 02:37:36;;;;;;;1.50;1.30;;;2.20;98.00;;;;;;5093956;28;20463;-60
2020/12/11 02:40:05;;;;;;;2.13;1.97;;;2.10;98.00;;;;;;5092268;28;20455;-61
2020/12/11 02:42:32;;;;;;;1.23;1.20;;;2.10;98.00;;;;;;5093843;28;20454;-60
2020/12/11 02:44:59;;;;;;;1.10;1.00;;;2.20;98.00;;;;;;5091794;28;20459;-60
2020/12/11 02:47:25;;;;;;;1.30;1.10;;;2.10;98.00;;;;;;5093717;28;20508;-60
2020/12/11 02:49:52;;;;;;;1.20;1.00;;;2.00;98.00;;;;;;5091368;28;20519;-61
2020/12/11 02:52:18;;;;;;;1.87;1.37;;;1.90;98.00;;;;;;5093689;28;20508;-60
2020/12/11 02:54:47;;;;;;;1.20;1.00;;;1.90;98.00;;;;;;5091598;28;20520;-60
2020/12/11 02:57:14;;;;;;;1.20;1.00;;;1.80;98.00;;;;;;5093419;28;20467;-60
2020/12/11 02:59:40;;;;;;;1.10;1.00;;;1.70;98.00;;;;;;5091457;28;20816;-60
2020/12/11 03:02:07;;;;;;;1.97;1.40;;;1.60;98.00;;;;;;5093329;28;20462;-60
2020/12/11 03:04:40;;;;;;;1.13;1.00;;;1.50;98.00;;;;;;5091444;28;20514;-61
2020/12/11 03:07:07;;;;;;;1.30;1.10;;;1.50;98.00;;;;;;5093123;28;20931;-60
2020/12/11 03:09:42;;;;;;;1.40;1.20;;;1.60;98.00;;;;;;5091281;28;20993;-60
2020/12/11 03:12:09;;;;;;;1.40;1.10;;;1.70;98.00;;;;;;5093113;28;20460;-60
2020/12/11 03:14:38;;;;;;;2.03;1.93;;;1.70;98.00;;;;;;5091083;28;20458;-60
2020/12/11 03:17:04;;;;;;;1.60;1.50;;;1.60;98.00;;;;;;5093016;28;20452;-60
2020/12/11 03:19:31;;;;;;;1.20;1.20;;;1.50;98.00;;;;;;5091028;28;20824;-60
2020/12/11 03:21:57;;;;;;;1.10;1.00;;;1.40;98.00;;;;;;5089974;28;20449;-60
2020/12/11 03:24:29;;;;;;;1.10;1.00;;;1.40;98.00;;;;;;5090576;28;20455;-61
2020/12/11 03:26:56;;;;;;;1.20;1.00;;;1.40;98.00;;;;;;5092777;28;20516;-61
2020/12/11 03:29:22;;;;;;;2.07;1.67;;;1.40;98.00;;;;;;5090755;28;20840;-60
2020/12/11 03:31:50;;;;;;;1.80;1.40;;;1.40;98.00;;;;;;5092697;28;20893;-60
2020/12/11 03:34:16;;;;;;;1.20;1.10;;;1.40;98.00;;;;;;5091084;28;20454;-60
2020/12/11 03:36:43;;;;;;;1.10;1.00;;;1.40;98.00;;;;;;5092664;28;20527;-61
2020/12/11 03:39:09;;;;;;;1.40;1.30;;;1.40;98.00;;;;;;5090506;28;20519;-60
2020/12/11 03:41:36;;;;;;;1.97;1.47;;;1.50;98.00;;;;;;5092823;28;20488;-61
2020/12/11 03:44:04;;;;;;;1.33;1.27;;;1.60;98.00;;;;;;5089675;28;20972;-60
2020/12/11 03:46:31;;;;;;;1.10;1.00;;;1.50;98.00;;;;;;5072810;28;20449;-60
2020/12/11 03:49:14;;;;;;;1.20;1.10;;;1.60;98.00;;;;;;5090512;28;20834;-60
2020/12/11 03:51:40;;;;;;;1.40;1.30;;;1.70;98.00;;;;;;5091153;28;21246;-60
2020/12/11 03:54:07;;;;;;;1.17;1.00;;;1.70;98.00;;;;;;5090751;28;20465;-60
2020/12/11 03:56:33;;;;;;;1.83;1.20;;;1.70;98.00;;;;;;5092363;28;20462;-60
2020/12/11 03:59:00;;;;;;;1.67;1.50;;;1.70;98.00;;;;;;5090547;28;20458;-60
2020/12/11 04:01:27;;;;;;;1.10;1.00;;;1.60;98.00;;;;;;5092359;28;20866;-60
2020/12/11 04:03:55;;;;;;;1.83;1.37;;;1.50;98.00;;;;;;5091135;28;20454;-60
2020/12/11 04:06:22;;;;;;;1.10;1.00;;;1.40;98.00;;;;;;5091920;28;20482;-60
2020/12/11 04:08:48;;;;;;;1.30;1.30;;;1.30;98.00;;;;;;5092360;28;20507;-60
2020/12/11 04:11:16;;;;;;;2.03;1.17;;;1.20;98.00;;;;;;5090219;28;20486;-60
2020/12/11 04:13:42;;;;;;;1.70;1.30;;;1.10;98.00;;;;;;5091996;28;20888;-61
2020/12/11 04:16:10;;;;;;;1.10;1.00;;;1.00;98.00;;;;;;5089945;28;20453;-60
2020/12/11 04:18:37;;;;;;;1.20;1.10;;;1.00;98.00;;;;;;5091961;28;20443;-60
2020/12/11 04:21:03;;;;;;;1.97;1.20;;;1.00;98.00;;;;;;5089980;28;20457;-60
2020/12/11 04:23:30;;;;;;;1.20;1.10;;;1.00;98.00;;;;;;5091689;28;20523;-60
2020/12/11 04:25:57;;;;;;;1.10;1.00;;;0.90;98.00;;;;;;5088585;28;20515;-60
2020/12/11 04:28:24;;;;;;;1.45;1.42;;;0.80;98.00;;;;;;5091880;28;20529;-60
2020/12/11 04:30:50;;;;;;;1.30;1.20;;;0.70;98.00;;;;;;5089919;28;20577;-60
2020/12/11 04:33:17;;;;;;;1.10;1.10;;;0.70;98.00;;;;;;5090281;28;20869;-60
2020/12/11 04:35:43;;;;;;;1.40;1.10;;;0.70;98.00;;;;;;5089762;28;20531;-60
2020/12/11 04:38:10;;;;;;;2.00;1.58;;;0.70;98.00;;;;;;5091488;28;20211;-60
2020/12/11 04:40:37;;;;;;;2.85;1.65;;;0.70;98.00;;;;;;5089397;28;20252;-60
2020/12/11 04:43:04;;;;;;;1.30;1.23;;;0.70;98.00;;;;;;5091883;28;20202;-60
2020/12/11 04:45:32;;;;;;;1.10;1.00;;;0.70;98.00;;;;;;5089612;28;20240;-60
2020/12/11 04:48:00;;;;;;;1.10;1.10;;;0.70;98.00;;;;;;5091622;28;20259;-60
2020/12/11 04:50:27;;;;;;;1.10;1.00;;;0.80;98.00;;;;;;5089442;28;20350;-60
2020/12/11 04:52:56;;;;;;;1.13;1.00;;;0.90;98.00;;;;;;5091426;28;21157;-60
2020/12/11 04:55:22;;;;;;;1.87;1.20;;;1.00;98.00;;;;;;5089542;28;20454;-61
2020/12/11 04:57:51;;;;;;;1.10;1.00;;;1.00;98.00;;;;;;5091756;28;20454;-61
2020/12/11 05:00:19;;;;;;;1.10;1.00;;;0.90;98.00;;;;;;5093658;28;21082;-60
2020/12/11 05:02:47;;;;;;;1.10;1.00;;;0.80;98.00;;;;;;5095856;28;20445;-60
2020/12/11 05:05:16;;;;;;;1.20;1.10;;;0.70;98.00;;;;;;5094148;28;20814;-60
2020/12/11 05:07:43;;;;;;;1.17;1.07;;;0.60;98.00;;;;;;5095759;28;20452;-60
2020/12/11 05:10:10;;;;;;;1.10;1.10;;;0.60;98.00;;;;;;5093804;28;20807;-61
2020/12/11 05:12:38;;;;;;;1.10;1.00;;;0.80;98.00;;;;;;5095388;28;20526;-60
2020/12/11 05:15:06;;;;;;;1.30;1.17;;;1.00;98.00;;;;;;5092191;28;20452;-60
2020/12/11 05:17:35;;;;;;;1.10;0.97;;;0.90;98.00;;;;;;5095409;28;20207;-60
2020/12/11 05:20:03;;;;;;;1.23;1.20;;;0.90;98.00;;;;;;5093565;28;20518;-60
2020/12/11 05:22:32;;;;;;;1.40;1.30;;;0.90;98.00;;;;;;5095487;28;20460;-60
2020/12/11 05:24:59;;;;;;;1.10;1.00;;;0.90;98.00;;;;;;5093572;28;20445;-60
2020/12/11 05:27:33;;;;;;;1.20;1.10;;;0.90;98.00;;;;;;5095252;28;20449;-61
2020/12/11 05:30:02;;;;;;;1.90;1.80;;;0.90;98.00;;;;;;5093289;28;20458;-60
2020/12/11 05:32:37;;;;;;;1.53;1.50;;;0.80;98.00;;;;;;5095101;28;20506;-60
2020/12/11 05:35:06;;;;;;;1.73;1.33;;;0.60;98.00;;;;;;5093323;28;20526;-60
2020/12/11 05:37:44;;;;;;;1.63;1.33;;;0.60;98.00;;;;;;5095011;28;20219;-60
2020/12/11 05:40:16;;;;;;;1.80;1.50;;;0.40;98.00;;;;;;5092646;28;20508;-61
2020/12/11 05:42:42;;;;;;;1.17;1.10;;;0.40;98.00;;;;;;5094121;28;20458;-61
2020/12/11 05:45:17;;;;;;;1.90;1.33;;;0.40;98.00;;;;;;5092954;28;20517;-61
2020/12/11 05:47:44;;;;;;;1.10;1.00;;;0.30;98.00;;;;;;5094700;28;20449;-61
2020/12/11 05:50:19;;;;;;;1.60;1.10;;;0.40;98.00;;;;;;5094657;28;20454;-60
2020/12/11 05:52:47;;;;;;;1.10;1.00;;;0.50;98.00;;;;;;5094809;28;20204;-60
2020/12/11 05:55:19;;;;;;;1.10;0.97;;;0.70;98.00;;;;;;5094181;28;20449;-60
2020/12/11 05:57:46;;;;;;;1.30;1.10;;;0.80;98.00;;;;;;5094448;28;20453;-60
2020/12/11 06:00:13;;;;;;;1.20;1.13;;;0.70;98.00;;;;;;5093203;28;20506;-60
2020/12/11 06:02:41;;;;;;;1.47;1.13;;;0.70;98.00;;;;;;5092344;28;20497;-60
2020/12/11 06:05:11;;;;;;;1.40;1.20;;;0.60;98.00;;;;;;5094421;28;20449;-60
2020/12/11 06:07:41;;;;;;;1.50;1.50;;;0.50;98.00;;;;;;5092939;28;21016;-60
2020/12/11 06:10:09;;;;;;;1.10;0.97;;;0.30;98.00;;;;;;5093474;28;20453;-61
2020/12/11 06:12:36;;;;;;;1.10;1.00;;;0.30;98.00;;;;;;5090168;28;20492;-60
2020/12/11 06:15:09;;;;;;;1.20;1.10;;;0.40;98.00;;;;;;5094180;28;20447;-60
2020/12/11 06:17:40;;;;;;;1.23;1.15;;;0.30;98.00;;;;;;5092113;28;20505;-60
2020/12/11 06:20:09;;;;;;;1.50;1.45;;;0.20;98.00;;;;;;5094235;28;20304;-60
2020/12/11 06:22:36;;;;;;;1.10;1.00;;;0.20;98.00;;;;;;5092305;28;20206;-60
2020/12/11 06:25:24;;;;;;;1.30;1.10;;;0.10;98.00;;;;;;5094420;28;20486;-60
2020/12/11 06:27:51;;;;;;;1.10;0.90;;;0.10;98.00;;;;;;5084796;28;20935;-60
2020/12/11 06:30:27;;;;;;;1.10;1.00;;;0.10;98.00;;;;;;5094277;28;20203;-60
2020/12/11 06:32:54;;;;;;;1.20;1.10;;;0.10;98.00;;;;;;5092220;28;20207;-60
2020/12/11 06:35:21;;;;;;;1.20;1.20;;;0.00;98.00;;;;;;5094097;28;20260;-60
2020/12/11 06:37:48;;;;;;;1.30;1.20;;;0.00;98.00;;;;;;5092127;28;20215;-59
2020/12/11 06:40:15;;;;;;;1.67;1.63;;;0.10;98.00;;;;;;5093855;28;20732;-60
2020/12/11 06:42:47;;;;;;;1.20;1.10;;;0.00;98.00;;;;;;5091895;28;20237;-60
2020/12/11 06:45:21;;;;;;;3.85;2.08;;;0.00;98.00;;;;;;5093789;28;20300;-60
2020/12/11 06:47:50;;;;;;;1.20;1.10;;;0.00;98.00;;;;;;5092069;28;20641;-60
2020/12/11 06:50:18;;;;;;;1.30;1.30;;;0.10;98.00;;;;;;5093713;28;20269;-60
2020/12/11 06:52:46;;;;;;;4.05;2.50;;;0.10;98.00;;;;;;5092066;28;20451;-61
2020/12/11 06:55:14;;;;;;;1.65;1.33;;;0.10;98.00;;;;;;5093609;28;20210;-60
2020/12/11 06:57:46;;;;;;;1.45;1.38;;;0.20;98.00;;;;;;5091649;28;20198;-60
2020/12/11 07:00:36;;;;;;;1.58;1.48;;;0.30;98.00;;;;;;5093205;28;20259;-60
2020/12/11 07:03:29;;;;;;;1.50;1.27;;;0.40;98.00;;;;;;5091616;28;20739;-60
2020/12/11 07:06:00;;;;;;;1.10;1.00;;;0.60;98.00;;;;;;5093481;28;20206;-60
2020/12/11 07:08:28;;;;;;;1.77;1.67;;;0.70;98.00;;;;;;5091587;28;20211;-60
2020/12/11 07:11:02;;;;;;;1.17;1.07;;;0.60;98.00;;;;;;5092749;28;20222;-60
2020/12/11 07:13:28;;;;;;;1.20;1.20;;;0.70;98.00;;;;;;5091152;28;20522;-60
2020/12/11 07:15:59;;;;;;;1.40;1.33;;;0.60;98.00;;;;;;5092315;28;20446;-60
2020/12/11 07:18:26;;;;;;;1.30;1.25;;;0.60;98.00;;;;;;5091173;28;20511;-60
2020/12/11 07:20:54;;;;;;;1.35;1.27;;;0.60;98.00;;;;;;5092356;28;20630;-60
2020/12/11 07:23:20;;;;;;;1.87;1.77;;;0.60;98.00;;;;;;5089824;28;20307;-60
2020/12/11 07:25:50;;;;;;;1.10;0.90;;;0.70;98.00;;;;;;5092130;28;20897;-60
2020/12/11 07:28:16;;;;;;;1.60;1.60;;;0.60;98.00;;;;;;5090566;28;20448;-60
2020/12/11 07:30:44;;;;;;;1.70;1.65;;;0.60;98.00;;;;;;5090765;28;20539;-60
2020/12/11 07:33:11;;;;;;;1.20;1.00;;;0.60;98.00;;;;;;5090381;28;20206;-61
2020/12/11 07:35:38;;;;;;;1.75;1.65;;;0.70;98.00;;;;;;5092003;28;20205;-60
2020/12/11 07:38:05;;;;;;;1.20;1.20;;;0.60;98.00;;;;;;5090596;28;20251;-60
2020/12/11 07:40:31;;;;;;;1.30;1.23;;;0.60;98.00;;;;;;5091955;28;20448;-60
2020/12/11 07:43:00;;;;;;;1.10;1.00;;;0.70;98.00;;;;;;5090314;28;20216;-59
2020/12/11 07:45:28;;;;;;;1.10;0.97;;;0.70;98.00;;;;;;5091970;28;20207;-60
2020/12/11 07:47:55;;;;;;;2.78;2.13;;;0.80;98.00;;;;;;5090518;28;20461;-60
2020/12/11 07:50:23;;;;;;;1.20;1.10;;;0.80;98.00;;;;;;5091995;28;20268;-60
2020/12/11 07:52:52;;;;;;;1.10;1.00;;;0.90;98.00;;;;;;5090053;28;20206;-60
2020/12/11 07:55:19;;;;;;;1.80;1.30;;;0.80;98.00;;;;;;5091697;28;20534;-60
2020/12/11 07:57:54;;;;;;;1.40;1.30;;;0.80;98.00;;;;;;5089161;28;20452;-60
2020/12/11 08:00:23;;;;;;;1.50;1.35;;;0.70;98.00;;;;;;5091627;28;20630;-59
2020/12/11 08:02:57;;;;;;;1.13;1.00;;;0.80;98.00;;;;;;5090016;28;20660;-60
2020/12/11 08:05:24;;;;;;;1.63;1.40;;;0.80;98.00;;;;;;5091432;28;20518;-60
2020/12/11 08:07:52;;;;;;;1.20;1.02;;;0.80;98.00;;;;;;5090072;28;20867;-60
2020/12/11 08:10:20;;;;;;;1.30;1.15;;;0.80;98.00;;;;;;5091417;28;20206;-60
2020/12/11 08:12:49;;;;;;;2.80;1.73;;;0.80;98.00;;;;;;5089710;28;20267;-60
2020/12/11 08:15:31;;;;;;;1.10;1.10;;;0.80;98.00;;;;;;5091341;28;20498;-60
2020/12/11 08:18:21;;;;;;;1.87;1.77;;;0.80;98.00;;;;;;5089767;28;20871;-60
2020/12/11 08:20:51;;;;;;;1.73;1.58;;;0.90;98.00;;;;;;5091188;28;20480;-60
2020/12/11 08:23:19;;;;;;;1.15;1.05;;;0.90;98.00;;;;;;5089759;28;20267;-62
2020/12/11 08:25:46;;;;;;;1.33;1.27;;;0.90;98.00;;;;;;5091031;28;20265;-60
2020/12/11 08:28:13;;;;;;;1.20;1.10;;;1.10;98.00;;;;;;5089727;28;20514;-60
2020/12/11 08:30:40;;;;;;;1.20;1.10;;;1.10;98.00;;;;;;5091002;28;20449;-60
2020/12/11 08:33:11;;;;;;;1.73;1.40;;;1.20;98.00;;;;;;5088999;28;20448;-59
2020/12/11 08:35:38;;;;;;;2.50;2.30;;;1.10;98.00;;;;;;5089684;28;20455;-60
2020/12/11 08:38:19;;;;;;;1.17;1.10;;;1.10;98.00;;;;;;5089170;28;20455;-59
2020/12/11 08:40:47;;;;;;;1.30;1.20;;;1.20;98.00;;;;;;5089891;28;20510;-61
2020/12/11 08:43:20;;;;;;;1.20;1.13;;;1.20;98.00;;;;;;5088900;28;20457;-59
2020/12/11 08:45:59;;;;;;;1.73;1.53;;;1.30;98.00;;;;;;5090381;28;20529;-59
2020/12/11 08:48:44;;;;;;;1.10;1.00;;;1.40;98.00;;;;;;5088783;28;20485;-60
2020/12/11 08:51:10;;;;;;;3.40;1.20;;;1.60;98.00;;;;;;5090251;28;20852;-59
2020/12/11 08:53:48;;;;;;;1.40;1.33;;;1.70;98.00;;;;;;5088355;28;20462;-60
2020/12/11 08:56:14;;;;;;;3.97;2.27;;;1.70;98.00;;;;;;5090307;28;20459;-60
2020/12/11 08:58:41;;;;;;;2.23;1.20;;;1.60;98.00;;;;;;5088365;28;20511;-60
2020/12/11 09:01:08;;;;;;;1.50;1.30;;;1.60;98.00;;;;;;5090277;28;20465;-60
2020/12/11 09:03:35;;;;;;;1.97;1.77;;;1.60;98.00;;;;;;5088284;28;20522;-60
2020/12/11 09:06:01;;;;;;;3.40;1.90;;;1.70;98.00;;;;;;5090279;28;20953;-60
2020/12/11 09:08:28;;;;;;;1.10;1.00;;;1.70;98.00;;;;;;5088228;28;20522;-61
2020/12/11 09:10:54;;;;;;;1.73;1.63;;;1.70;98.00;;;;;;5090080;28;20477;-59
2020/12/11 09:13:21;;;;;;;1.10;1.00;;;1.60;98.00;;;;;;5088649;28;20510;-60
2020/12/11 09:15:47;;;;;;;1.67;1.63;;;1.60;98.00;;;;;;5090258;28;20937;-60
2020/12/11 09:18:14;;;;;;;1.33;1.27;;;1.70;98.00;;;;;;5088828;28;20454;-60
2020/12/11 09:20:41;;;;;;;1.50;1.30;;;1.70;98.00;;;;;;5090022;28;20819;-60
2020/12/11 09:23:07;;;;;;;1.70;1.50;;;1.80;98.00;;;;;;5088583;28;20454;-60
2020/12/11 09:25:34;;;;;;;1.93;1.67;;;1.90;98.00;;;;;;5089830;28;20449;-60
2020/12/11 09:28:02;;;;;;;2.33;2.17;;;2.20;98.00;;;;;;5088706;28;20451;-60
2020/12/11 09:30:31;;;;;;;1.53;1.47;;;2.40;98.00;;;;;;5089809;28;20455;-60
2020/12/11 09:33:03;;;;;;;1.20;1.00;;;2.60;98.00;;;;;;5089996;28;20461;-60
2020/12/11 09:35:30;;;;;;;2.17;1.23;;;2.60;98.00;;;;;;5089660;28;21019;-60
2020/12/11 09:37:57;;;;;;;1.43;1.33;;;2.60;98.00;;;;;;5090042;28;20531;-60
2020/12/11 09:40:30;;;;;;;2.00;1.70;;;2.60;98.00;;;;;;5088148;28;20883;-60
2020/12/11 09:43:24;;;;;;;1.20;1.00;;;2.60;98.00;;;;;;5089979;28;20517;-60
2020/12/11 09:45:54;;;;;;;3.10;1.63;;;2.60;98.00;;;;;;5076295;28;20954;-61
2020/12/11 09:48:27;;;;;;;1.57;1.47;;;2.70;98.00;;;;;;5071751;28;20464;-60
2020/12/11 09:51:04;;;;;;;1.20;1.00;;;2.70;98.00;;;;;;5073524;28;20489;-60
2020/12/11 09:53:57;;;;;;;1.30;1.30;;;2.90;98.00;;;;;;5071581;28;20448;-61
2020/12/11 09:56:25;;;;;;;1.20;1.20;;;3.10;98.00;;;;;;5073332;28;20451;-60
2020/12/11 09:58:54;;;;;;;1.70;1.43;;;3.30;98.00;;;;;;5071410;28;20894;-60
2020/12/11 10:01:25;;;;;;;1.20;1.10;;;3.20;98.00;;;;;;5072993;28;20462;-61
2020/12/11 10:03:54;;;;;;;1.43;1.43;;;3.30;98.00;;;;;;5071197;28;20459;-60
2020/12/11 10:06:24;;;;;;;2.07;1.30;;;3.40;98.00;;;;;;5073038;28;20467;-60
2020/12/11 10:08:51;;;;;;;1.53;1.50;;;3.30;98.00;;;;;;5071442;28;20467;-60
2020/12/11 10:11:19;;;;;;;2.53;1.73;;;3.40;98.00;;;;;;5073025;28;20486;-60
2020/12/11 10:13:47;;;;;;;1.30;1.10;;;3.40;98.00;;;;;;5069576;28;20491;-61
2020/12/11 10:16:16;;;;;;;1.40;1.17;;;3.30;98.00;;;;;;5072866;28;20456;-60
2020/12/11 10:18:42;;;;;;;2.07;1.63;;;3.30;98.00;;;;;;5070998;28;20478;-60
2020/12/11 10:21:10;;;;;;;4.17;2.20;;;3.20;98.00;;;;;;5072770;28;20444;-61
2020/12/11 10:23:38;;;;;;;1.20;1.10;;;3.20;98.00;;;;;;5072311;28;20500;-60
2020/12/11 10:26:05;;;;;;;1.40;1.30;;;3.40;98.00;;;;;;5071198;28;20448;-60
2020/12/11 10:28:33;;;;;;;1.40;1.20;;;3.40;98.00;;;;;;5069302;28;20456;-60
2020/12/11 10:30:59;;;;;;;1.20;1.00;;;3.30;98.00;;;;;;5070545;28;20511;-61
2020/12/11 10:33:26;;;;;;;1.60;1.20;;;3.30;98.00;;;;;;5072314;28;20947;-61
2020/12/11 10:35:52;;;;;;;2.53;1.47;;;3.30;98.00;;;;;;5070307;28;20480;-61
2020/12/11 10:38:19;;;;;;;1.47;1.40;;;3.30;98.00;;;;;;5072447;28;20969;-60
2020/12/11 10:40:47;;;;;;;1.20;1.10;;;3.40;98.00;;;;;;5070625;28;20457;-60
2020/12/11 10:43:13;;;;;;;1.97;1.43;;;3.50;98.00;;;;;;5072248;28;20456;-60
2020/12/11 10:45:40;;;;;;;2.23;2.07;;;3.60;98.00;;;;;;5070884;28;20510;-61
2020/12/11 10:48:06;;;;;;;1.40;1.20;;;3.50;98.00;;;;;;5072347;28;20460;-60
2020/12/11 10:50:33;;;;;;;1.20;1.00;;;3.50;98.00;;;;;;5071179;28;20455;-60
2020/12/11 10:53:00;;;;;;;2.10;2.00;;;3.40;98.00;;;;;;5072311;28;20545;-60
2020/12/11 10:55:26;;;;;;;1.40;1.20;;;3.40;98.00;;;;;;5070363;28;20459;-61
2020/12/11 10:57:54;;;;;;;1.30;1.20;;;3.50;98.00;;;;;;5071688;28;20477;-60
2020/12/11 11:00:21;;;;;;;1.30;1.30;;;3.40;98.00;;;;;;5070261;28;20456;-61
2020/12/11 11:02:47;;;;;;;1.37;1.20;;;3.30;98.00;;;;;;5071983;28;20476;-61
2020/12/11 11:05:14;;;;;;;2.13;1.97;;;3.30;98.00;;;;;;5069862;28;20942;-60
2020/12/11 11:07:41;;;;;;;1.97;1.33;;;3.20;98.00;;;;;;5071847;28;20449;-62
2020/12/11 11:10:16;;;;;;;1.30;1.20;;;3.20;98.00;;;;;;5070104;28;20479;-59
2020/12/11 11:12:46;;;;;;;3.73;1.30;;;3.20;98.00;;;;;;5071765;28;20508;-61
2020/12/11 11:15:32;;;;;;;4.60;1.83;;;3.30;98.00;;;;;;5069987;28;20463;-60
2020/12/11 11:18:12;;;;;;;2.47;1.77;;;3.30;98.00;;;;;;5072088;28;20480;-60
2020/12/11 11:20:55;;;;;;;5.10;1.73;;;3.20;98.00;;;;;;5069840;28;20544;-61
2020/12/11 11:23:36;;;;;;;1.17;1.00;;;3.20;98.00;;;;;;5071478;28;20453;-60
2020/12/11 11:26:14;;;;;;;1.53;1.30;;;3.10;98.00;;;;;;5070210;28;20462;-60
2020/12/11 11:28:40;;;;;;;1.20;1.00;;;3.20;98.00;;;;;;5071498;28;20459;-60
2020/12/11 11:31:11;;;;;;;1.30;1.23;;;3.30;98.00;;;;;;5069717;28;20541;-60
2020/12/11 11:33:37;;;;;;;2.23;1.87;;;3.30;98.00;;;;;;5071218;28;20957;-60
2020/12/11 11:36:04;;;;;;;1.47;1.30;;;3.40;98.00;;;;;;5069734;28;20455;-60
2020/12/11 11:38:31;;;;;;;1.20;1.00;;;3.40;98.00;;;;;;5071422;28;20452;-60
2020/12/11 11:40:57;;;;;;;1.20;0.93;;;3.40;98.00;;;;;;5070049;28;20503;-61
2020/12/11 11:43:36;;;;;;;1.30;1.30;;;3.50;98.00;;;;;;5071202;28;20452;-61
2020/12/11 11:46:04;;;;;;;1.10;0.90;;;3.60;98.00;;;;;;5069982;28;20456;-60
2020/12/11 11:48:40;;;;;;;1.20;1.00;;;;;;;;;;5071243;28;20510;-61
2020/12/11 11:51:11;;;;;;;1.40;1.10;;;3.80;98.00;;;;;;5070084;28;20541;-60
2020/12/11 11:53:37;;;;;;;1.67;1.27;;;3.90;98.00;;;;;;5070635;28;20447;-61
2020/12/11 11:56:04;;;;;;;1.50;1.27;;;4.00;98.00;;;;;;5069685;28;20526;-60
2020/12/11 11:58:30;;;;;;;2.23;1.60;;;4.10;98.00;;;;;;5070791;28;20461;-61
2020/12/11 12:00:57;;;;;;;1.20;1.00;;;4.10;98.00;;;;;;5069224;28;20825;-62
2020/12/11 12:03:26;;;;;;;1.70;1.60;;;4.20;98.00;;;;;;5070820;28;20452;-60
2020/12/11 12:05:53;;;;;;;1.50;1.20;;;4.30;98.00;;;;;;5069292;28;20449;-60
2020/12/11 12:08:23;;;;;;;1.53;1.27;;;4.40;98.00;;;;;;5070212;28;20548;-61
2020/12/11 12:10:50;;;;;;;1.90;1.90;;;4.30;98.00;;;;;;5069300;28;20460;-60
2020/12/11 12:13:19;;;;;;;1.20;0.97;;;4.30;98.00;;;;;;5071884;28;20452;-61
2020/12/11 12:15:46;;;;;;;1.20;1.00;;;4.40;98.00;;;;;;5070108;28;20507;-60
2020/12/11 12:18:14;;;;;;;1.47;1.40;;;4.40;98.00;;;;;;5071291;28;20457;-61
2020/12/11 12:20:49;;;;;;;1.30;1.17;;;4.60;98.00;;;;;;5068859;28;20548;-60
2020/12/11 12:28:57;;;;;;;1.47;1.10;;;4.60;98.00;;;;;;5063561;28;20535;-61
2020/12/11 12:31:28;;;;;;;2.27;2.07;;;4.70;98.00;;;;;;5068814;28;20533;-61
2020/12/11 12:39:48;;;;;;;2.60;1.30;;;4.70;98.00;;;;;;5044507;28;20975;-60
2020/12/11 12:44:55;;;;;;;1.63;1.57;;;4.80;98.00;;;;;;5070595;28;20449;-61
2020/12/11 12:47:27;;;;;;;1.70;1.60;;;4.80;98.00;;;;;;5068647;28;20837;-60
2020/12/11 12:49:54;;;;;;;1.20;1.00;;;4.90;98.00;;;;;;5070216;28;20960;-60
2020/12/11 12:52:23;;;;;;;2.10;1.10;;;4.90;98.00;;;;;;5068312;28;20485;-61
2020/12/11 12:54:51;;;;;;;1.20;1.00;;;5.00;98.00;;;;;;5070572;28;20445;-60
2020/12/11 12:57:20;;;;;;;1.40;1.10;;;5.00;98.00;;;;;;5069234;28;20457;-61
2020/12/11 12:59:52;;;;;;;1.30;1.10;;;4.90;98.00;;;;;;5069617;28;20449;-60
2020/12/11 13:02:47;;;;;;;4.17;1.63;;;4.70;98.00;;;;;;5069426;28;20593;-61
2020/12/11 13:05:12;;;;;;;1.20;1.00;;;4.70;98.00;;;;;;5070646;28;20446;-60
2020/12/11 13:07:39;;;;;;;1.60;1.20;;;4.70;98.00;;;;;;5069505;28;20545;-61
2020/12/11 13:10:08;;;;;;;1.53;1.27;;;4.80;98.00;;;;;;5070634;28;20892;-61
2020/12/11 13:12:34;;;;;;;1.40;1.10;;;4.90;98.00;;;;;;5069173;28;20484;-60
2020/12/11 13:15:01;;;;;;;1.90;1.20;;;4.80;98.00;;;;;;5070723;28;20514;-61
2020/12/11 13:17:27;;;;;;;1.20;0.90;;;4.80;98.00;;;;;;5069059;28;20516;-60
2020/12/11 13:19:54;;;;;;;1.87;1.20;;;5.00;98.00;;;;;;5072476;28;20940;-61